createdAt,value
2018-11-29T00:00:19.442Z,1.60
2018-11-29T00:02:47.576Z,1.10
2018-11-29T00:05:46.663Z,1.40
2018-11-29T00:08:14.816Z,1.27
2018-11-29T00:10:42.964Z,1.20
2018-11-29T00:13:11.082Z,1.23
2018-11-29T00:15:39.138Z,1.30
2018-11-29T00:18:07.371Z,1.30
2018-11-29T00:20:35.421Z,1.33
2018-11-29T00:23:03.687Z,1.17
2018-11-29T00:25:31.659Z,1.13
2018-11-29T00:27:59.892Z,1.77
2018-11-29T00:30:27.900Z,1.03
2018-11-29T00:32:56.859Z,1.00
2018-11-29T00:35:24.866Z,1.00
2018-11-29T00:37:53.400Z,1.23
2018-11-29T00:40:22.248Z,1.30
2018-11-29T00:42:50.398Z,1.30
2018-11-29T00:45:21.121Z,0.90
2018-11-29T00:47:49.402Z,1.07
2018-11-29T00:50:18.085Z,1.00
2018-11-29T00:52:48.450Z,1.03
2018-11-29T00:55:17.713Z,1.00
2018-11-29T00:57:45.633Z,1.17
2018-11-29T01:00:29.201Z,1.30
2018-11-29T01:02:57.176Z,1.17
2018-11-29T01:05:25.335Z,1.50
2018-11-29T01:07:53.924Z,1.53
2018-11-29T01:10:22.160Z,1.07
2018-11-29T01:12:50.977Z,1.20
2018-11-29T01:15:20.640Z,1.30
2018-11-29T01:17:49.632Z,1.10
2018-11-29T01:20:19.894Z,1.30
2018-11-29T01:22:47.931Z,1.40
2018-11-29T01:25:16.122Z,1.20
2018-11-29T01:27:45.163Z,2.03
2018-11-29T01:30:15.321Z,1.40
2018-11-29T01:32:43.606Z,1.13
2018-11-29T01:35:14.829Z,1.43
2018-11-29T01:37:43.139Z,1.10
2018-11-29T01:40:19.122Z,1.37
2018-11-29T01:42:56.495Z,2.17
2018-11-29T01:45:25.049Z,1.50
2018-11-29T01:47:53.198Z,2.00
2018-11-29T01:50:21.470Z,1.77
2018-11-29T01:52:49.657Z,1.17
2018-11-29T01:55:17.695Z,1.30
2018-11-29T01:57:45.742Z,2.07
2018-11-29T02:00:15.437Z,1.13
2018-11-29T02:02:44.507Z,1.40
2018-11-29T02:05:13.151Z,1.10
2018-11-29T02:07:41.312Z,1.27
2018-11-29T02:10:17.613Z,1.43
2018-11-29T02:12:46.631Z,1.30
2018-11-29T02:15:14.970Z,1.43
2018-11-29T02:17:43.249Z,1.40
2018-11-29T02:20:15.488Z,1.97
2018-11-29T02:22:43.696Z,1.43
2018-11-29T02:25:11.899Z,1.60
2018-11-29T02:27:40.049Z,1.60
2018-11-29T02:30:25.737Z,1.70
2018-11-29T02:32:53.946Z,1.40
2018-11-29T02:35:22.217Z,1.33
2018-11-29T02:37:50.418Z,1.37
2018-11-29T02:40:18.791Z,1.60
2018-11-29T02:42:48.167Z,1.70
2018-11-29T02:45:19.266Z,1.63
2018-11-29T02:47:47.562Z,1.70
2018-11-29T02:50:16.093Z,1.97
2018-11-29T02:52:44.255Z,1.80
2018-11-29T02:55:12.932Z,1.60
2018-11-29T02:57:41.331Z,1.67
2018-11-29T03:00:11.909Z,1.60
2018-11-29T03:02:39.955Z,1.83
2018-11-29T03:05:08.342Z,1.70
2018-11-29T03:07:36.452Z,1.53
2018-11-29T03:10:06.769Z,1.50
2018-11-29T03:12:35.160Z,1.70
2018-11-29T03:15:03.432Z,2.00
2018-11-29T03:17:31.429Z,1.80
2018-11-29T03:19:59.417Z,1.63
2018-11-29T03:22:27.434Z,1.40
2018-11-29T03:24:55.474Z,1.57
2018-11-29T03:27:24.800Z,2.20
2018-11-29T03:29:53.621Z,1.93
2018-11-29T03:32:21.809Z,1.67
2018-11-29T03:34:50.058Z,1.70
2018-11-29T03:37:18.109Z,2.50
2018-11-29T03:39:46.147Z,2.10
2018-11-29T03:42:14.465Z,1.80
2018-11-29T03:44:42.533Z,1.73
2018-11-29T03:47:10.619Z,1.80
2018-11-29T03:49:38.672Z,1.83
2018-11-29T03:52:06.902Z,2.00
2018-11-29T03:54:35.132Z,1.80
2018-11-29T03:57:03.202Z,1.60
2018-11-29T03:59:31.313Z,1.60
2018-11-29T04:01:59.426Z,1.70
2018-11-29T04:04:27.673Z,2.07
2018-11-29T04:06:55.781Z,2.17
2018-11-29T04:09:23.843Z,2.60
2018-11-29T04:11:52.718Z,1.67
2018-11-29T04:14:21.059Z,2.77
2018-11-29T04:16:49.061Z,1.80
2018-11-29T04:19:17.383Z,2.03
2018-11-29T04:21:45.596Z,2.20
2018-11-29T04:24:13.829Z,1.97
2018-11-29T04:26:41.853Z,2.20
2018-11-29T04:29:09.834Z,1.90
2018-11-29T04:31:38.038Z,2.73
2018-11-29T04:34:06.139Z,2.17
2018-11-29T04:36:34.051Z,2.60
2018-11-29T04:39:02.166Z,2.97
2018-11-29T04:41:30.394Z,2.80
2018-11-29T04:43:58.483Z,3.00
2018-11-29T04:46:38.491Z,3.50
2018-11-29T04:49:06.664Z,2.77
2018-11-29T04:51:34.783Z,3.20
2018-11-29T04:54:02.826Z,3.17
2018-11-29T04:56:31.452Z,3.57
2018-11-29T04:58:59.649Z,3.50
2018-11-29T05:01:27.689Z,3.67
2018-11-29T05:03:55.665Z,4.13
2018-11-29T05:06:24.010Z,3.73
2018-11-29T05:08:52.341Z,4.53
2018-11-29T05:11:20.413Z,5.07
2018-11-29T05:13:48.581Z,4.23
2018-11-29T05:16:16.752Z,5.43
2018-11-29T05:18:44.712Z,4.27
2018-11-29T05:21:12.782Z,4.60
2018-11-29T05:23:40.952Z,5.50
2018-11-29T05:26:09.132Z,5.57
2018-11-29T05:28:37.126Z,4.80
2018-11-29T05:31:05.717Z,5.57
2018-11-29T05:33:33.781Z,6.27
2018-11-29T05:36:01.849Z,6.40
2018-11-29T05:38:29.964Z,6.53
2018-11-29T05:40:58.910Z,4.97
2018-11-29T05:43:27.095Z,6.20
2018-11-29T05:45:55.423Z,6.27
2018-11-29T05:48:23.536Z,6.17
2018-11-29T05:50:51.574Z,5.87
2018-11-29T05:53:20.034Z,5.63
2018-11-29T05:55:48.878Z,6.00
2018-11-29T05:58:17.115Z,6.50
2018-11-29T06:00:45.311Z,5.83
2018-11-29T06:03:13.255Z,5.50
2018-11-29T06:05:41.321Z,5.67
2018-11-29T06:08:09.660Z,5.97
2018-11-29T06:10:38.148Z,4.70
2018-11-29T06:13:06.358Z,5.97
2018-11-29T06:15:34.454Z,5.80
2018-11-29T06:18:02.480Z,5.20
2018-11-29T06:20:30.533Z,5.97
2018-11-29T06:22:58.716Z,4.90
2018-11-29T06:25:27.236Z,4.30
2018-11-29T06:27:55.440Z,4.50
2018-11-29T06:30:23.577Z,5.73
2018-11-29T06:35:51.104Z,5.03
2018-11-29T06:38:19.296Z,5.03
2018-11-29T06:40:47.629Z,4.43
2018-11-29T06:43:15.820Z,5.70
2018-11-29T06:45:44.701Z,4.70
2018-11-29T06:48:12.805Z,5.70
2018-11-29T06:50:41.094Z,5.40
2018-11-29T06:53:29.135Z,5.33
2018-11-29T06:55:57.378Z,4.50
2018-11-29T06:58:25.383Z,4.57
2018-11-29T07:00:53.469Z,4.80
2018-11-29T07:03:21.414Z,4.93
2018-11-29T07:05:49.470Z,4.87
2018-11-29T07:08:17.883Z,5.60
2018-11-29T07:10:46.125Z,4.87
2018-11-29T07:13:14.317Z,5.63
2018-11-29T07:15:42.398Z,5.13
2018-11-29T07:18:10.510Z,5.10
2018-11-29T07:20:38.498Z,4.80
2018-11-29T07:23:06.632Z,5.77
2018-11-29T07:25:34.829Z,5.07
2018-11-29T07:28:03.024Z,4.83
2018-11-29T07:30:31.350Z,4.63
2018-11-29T07:32:59.454Z,4.73
2018-11-29T07:35:27.511Z,5.53
2018-11-29T07:37:55.899Z,5.37
2018-11-29T07:40:23.893Z,5.30
2018-11-29T07:42:53.934Z,5.83
2018-11-29T07:45:22.424Z,5.77
2018-11-29T07:47:50.780Z,5.50
2018-11-29T07:50:20.858Z,5.80
2018-11-29T07:52:48.873Z,6.33
2018-11-29T07:55:18.151Z,6.13
2018-11-29T07:57:47.546Z,6.90
2018-11-29T08:00:16.491Z,6.33
2018-11-29T08:02:45.007Z,6.80
2018-11-29T08:05:14.120Z,6.10
2018-11-29T08:07:47.595Z,7.50
2018-11-29T08:10:14.230Z,6.47
2018-11-29T08:12:42.421Z,5.87
2018-11-29T08:15:11.791Z,5.93
2018-11-29T08:17:39.880Z,5.90
2018-11-29T08:20:12.623Z,6.50
2018-11-29T08:22:40.757Z,6.40
2018-11-29T08:25:09.618Z,6.50
2018-11-29T08:27:37.975Z,7.53
2018-11-29T08:30:08.296Z,5.53
2018-11-29T08:32:36.591Z,8.00
2018-11-29T08:35:04.975Z,7.40
2018-11-29T08:37:33.045Z,6.83
2018-11-29T08:40:01.140Z,6.73
2018-11-29T08:42:29.071Z,7.93
2018-11-29T08:44:57.347Z,6.83
2018-11-29T08:47:25.348Z,6.87
2018-11-29T08:49:53.559Z,7.23
2018-11-29T08:52:21.629Z,7.10
2018-11-29T08:54:49.828Z,8.30
2018-11-29T08:57:18.032Z,7.33
2018-11-29T08:59:46.203Z,7.40
2018-11-29T09:02:14.482Z,6.73
2018-11-29T09:04:42.901Z,9.67
2018-11-29T09:07:10.873Z,7.30
2018-11-29T09:09:38.841Z,7.03
2018-11-29T09:12:06.898Z,8.53
2018-11-29T09:14:35.585Z,8.80
2018-11-29T09:17:03.803Z,8.10
2018-11-29T09:19:37.319Z,8.80
2018-11-29T09:22:00.842Z,9.20
2018-11-29T09:24:29.013Z,8.13
2018-11-29T09:26:57.115Z,9.17
2018-11-29T09:29:25.274Z,8.60
2018-11-29T09:31:53.310Z,9.57
2018-11-29T09:34:21.418Z,8.40
2018-11-29T09:36:50.259Z,7.83
2018-11-29T09:39:18.502Z,8.67
2018-11-29T09:41:46.601Z,8.17
2018-11-29T09:44:14.661Z,7.93
2018-11-29T09:46:43.232Z,7.83
2018-11-29T09:49:11.759Z,7.80
2018-11-29T09:51:39.767Z,7.30
2018-11-29T09:54:07.963Z,8.33
2018-11-29T09:56:35.991Z,7.60
2018-11-29T09:59:04.090Z,8.73
2018-11-29T10:01:32.378Z,7.03
2018-11-29T10:04:00.485Z,7.30
2018-11-29T10:06:28.519Z,6.97
2018-11-29T10:08:56.633Z,6.57
2018-11-29T10:11:24.909Z,7.83
2018-11-29T10:13:53.066Z,7.97
2018-11-29T10:16:21.322Z,7.63
2018-11-29T10:18:49.419Z,7.77
2018-11-29T10:21:17.395Z,7.77
2018-11-29T10:23:45.370Z,7.60
2018-11-29T10:26:13.691Z,9.13
2018-11-29T10:28:41.682Z,8.03
2018-11-29T10:31:09.853Z,8.20
2018-11-29T10:33:37.826Z,8.77
2018-11-29T10:36:06.032Z,8.10
2018-11-29T10:38:33.996Z,7.90
2018-11-29T10:41:02.114Z,8.20
2018-11-29T10:43:30.289Z,7.33
2018-11-29T10:45:58.410Z,8.23
2018-11-29T10:48:26.427Z,8.57
2018-11-29T10:50:54.428Z,9.37
2018-11-29T10:53:22.617Z,8.87
2018-11-29T10:55:50.779Z,8.03
2018-11-29T10:58:18.969Z,8.90
2018-11-29T11:00:52.443Z,9.23
2018-11-29T11:03:21.278Z,8.60
2018-11-29T11:05:50.692Z,8.87
2018-11-29T11:08:19.878Z,8.00
2018-11-29T11:10:48.332Z,9.13
2018-11-29T11:13:16.456Z,7.43
2018-11-29T11:15:44.572Z,8.60
2018-11-29T11:18:13.578Z,10.13
2018-11-29T11:20:41.613Z,8.47
2018-11-29T11:23:09.846Z,8.80
2018-11-29T11:25:38.200Z,8.60
2018-11-29T11:28:08.653Z,8.50
2018-11-29T11:30:38.518Z,8.43
2018-11-29T11:33:06.802Z,7.53
2018-11-29T11:35:34.760Z,8.27
2018-11-29T11:38:03.004Z,8.73
2018-11-29T11:40:31.131Z,8.43
2018-11-29T11:42:59.085Z,8.30
2018-11-29T11:45:27.126Z,9.60
2018-11-29T11:47:55.191Z,9.90
2018-11-29T11:50:24.404Z,8.83
2018-11-29T11:52:53.410Z,8.83
2018-11-29T11:55:21.606Z,10.17
2018-11-29T11:57:49.764Z,9.43
2018-11-29T12:00:22.688Z,9.67
2018-11-29T12:02:52.953Z,9.00
2018-11-29T12:05:22.120Z,8.23
2018-11-29T12:07:50.114Z,8.73
2018-11-29T12:10:18.227Z,8.73
2018-11-29T12:12:46.411Z,10.43
2018-11-29T12:15:15.169Z,8.97
2018-11-29T12:17:44.587Z,7.93
2018-11-29T12:20:16.539Z,10.10
2018-11-29T12:22:44.697Z,9.37
2018-11-29T12:25:13.932Z,9.10
2018-11-29T12:27:42.019Z,9.30
2018-11-29T12:30:28.384Z,8.60
2018-11-29T12:33:01.545Z,8.67
2018-11-29T12:35:29.578Z,9.07
2018-11-29T12:37:57.669Z,9.13
2018-11-29T12:40:25.921Z,10.30
2018-11-29T12:42:54.189Z,8.97
2018-11-29T12:45:22.524Z,8.83
2018-11-29T12:47:50.814Z,9.00
2018-11-29T12:50:22.930Z,8.17
2018-11-29T12:52:51.067Z,8.57
2018-11-29T12:55:20.272Z,8.43
2018-11-29T12:58:04.627Z,8.37
2018-11-29T13:00:22.329Z,8.40
2018-11-29T13:02:53.484Z,8.20
2018-11-29T13:05:21.646Z,8.00
2018-11-29T13:07:49.714Z,7.57
2018-11-29T13:10:18.811Z,9.13
2018-11-29T13:12:46.841Z,8.23
2018-11-29T13:15:17.784Z,8.17
2018-11-29T13:17:45.929Z,9.90
2018-11-29T13:20:15.221Z,7.73
2018-11-29T13:22:43.791Z,7.13
2018-11-29T13:25:13.906Z,8.53
2018-11-29T13:27:42.155Z,8.03
2018-11-29T13:30:12.371Z,7.50
2018-11-29T13:32:40.413Z,9.47
2018-11-29T13:35:15.136Z,7.90
2018-11-29T13:37:45.250Z,7.97
2018-11-29T13:40:13.538Z,8.43
2018-11-29T13:42:41.736Z,8.30
2018-11-29T13:45:10.834Z,9.77
2018-11-29T13:50:17.433Z,9.23
2018-11-29T13:52:45.944Z,8.60
2018-11-29T13:55:14.945Z,8.67
2018-11-29T13:57:44.297Z,9.60
2018-11-29T14:00:16.421Z,7.50
2018-11-29T14:02:47.051Z,7.60
2018-11-29T14:05:13.593Z,9.40
2018-11-29T14:07:41.700Z,9.03
2018-11-29T14:10:15.234Z,8.17
2018-11-29T14:12:44.270Z,7.93
2018-11-29T14:15:15.838Z,7.27
2018-11-29T14:17:43.835Z,7.33
2018-11-29T14:20:12.703Z,7.17
2018-11-29T14:22:40.820Z,7.43
2018-11-29T14:25:11.373Z,9.03
2018-11-29T14:27:39.600Z,7.23
2018-11-29T14:30:10.665Z,7.30
2018-11-29T14:32:38.805Z,8.07
2018-11-29T14:35:07.545Z,8.27
2018-11-29T14:37:35.754Z,6.53
2018-11-29T14:40:05.580Z,7.20
2018-11-29T14:42:33.682Z,7.37
2018-11-29T14:45:01.801Z,6.70
2018-11-29T14:47:29.917Z,8.23
2018-11-29T14:50:04.014Z,9.00
2018-11-29T14:52:32.049Z,8.13
2018-11-29T14:55:00.081Z,7.73
2018-11-29T14:57:28.254Z,6.63
2018-11-29T14:59:56.585Z,6.57
2018-11-29T15:02:24.652Z,7.37
2018-11-29T15:04:53.342Z,7.40
2018-11-29T15:07:21.867Z,7.67
2018-11-29T15:09:50.073Z,7.00
2018-11-29T15:12:18.315Z,8.10
2018-11-29T15:14:46.383Z,7.40
2018-11-29T15:17:14.449Z,7.23
2018-11-29T15:19:42.560Z,8.53
2018-11-29T15:22:10.526Z,6.60
2018-11-29T15:24:38.713Z,7.27
2018-11-29T15:27:06.800Z,6.60
2018-11-29T15:29:34.864Z,6.93
2018-11-29T15:32:02.818Z,6.90
2018-11-29T15:34:30.899Z,6.57
2018-11-29T15:36:58.895Z,6.47
2018-11-29T15:39:27.154Z,6.30
2018-11-29T15:42:01.810Z,6.53
2018-11-29T15:44:29.943Z,7.03
2018-11-29T15:46:58.003Z,6.37
2018-11-29T15:49:26.021Z,5.27
2018-11-29T15:51:54.169Z,6.70
2018-11-29T15:54:22.490Z,6.37
2018-11-29T15:56:50.550Z,6.30
2018-11-29T15:59:18.573Z,6.23
2018-11-29T16:01:47.613Z,6.17
2018-11-29T16:04:15.610Z,6.40
2018-11-29T16:06:43.743Z,6.40
2018-11-29T16:09:12.199Z,6.50
2018-11-29T16:11:40.658Z,6.20
2018-11-29T16:14:08.869Z,7.00
2018-11-29T16:16:37.185Z,6.40
2018-11-29T16:19:05.249Z,6.43
2018-11-29T16:21:33.403Z,5.80
2018-11-29T16:24:01.344Z,6.30
2018-11-29T16:26:29.411Z,5.97
2018-11-29T16:28:57.760Z,6.23
2018-11-29T16:31:25.850Z,6.20
2018-11-29T16:33:53.942Z,6.03
2018-11-29T16:36:22.161Z,7.13
2018-11-29T16:38:50.130Z,7.03
2018-11-29T16:41:18.047Z,5.70
2018-11-29T16:43:46.213Z,7.23
2018-11-29T16:46:14.200Z,6.40
2018-11-29T16:48:42.416Z,7.07
2018-11-29T16:51:10.749Z,6.60
2018-11-29T16:53:38.847Z,6.70
2018-11-29T16:56:06.920Z,6.57
2018-11-29T16:58:36.770Z,7.17
2018-11-29T17:01:08.849Z,7.20
2018-11-29T17:03:36.387Z,5.90
2018-11-29T17:06:05.300Z,6.27
2018-11-29T17:08:33.820Z,5.77
2018-11-29T17:11:02.615Z,6.70
2018-11-29T17:16:14.662Z,6.90
2018-11-29T17:18:42.809Z,7.00
2018-11-29T17:21:12.412Z,6.90
2018-11-29T17:23:40.835Z,6.30
2018-11-29T17:26:15.103Z,6.27
2018-11-29T17:28:43.675Z,6.00
2018-11-29T17:31:11.884Z,6.50
2018-11-29T17:33:40.626Z,6.50
2018-11-29T17:36:09.923Z,7.07
2018-11-29T17:38:39.315Z,6.70
2018-11-29T17:41:07.519Z,6.00
2018-11-29T17:43:36.162Z,6.37
2018-11-29T17:46:04.467Z,7.10
2018-11-29T17:48:32.475Z,6.13
2018-11-29T17:51:01.330Z,6.47
2018-11-29T17:53:30.666Z,6.43
2018-11-29T17:55:59.118Z,7.57
2018-11-29T17:58:27.208Z,7.23
2018-11-29T18:00:55.933Z,8.20
2018-11-29T18:03:23.934Z,6.93
2018-11-29T18:05:51.949Z,8.57
2018-11-29T18:08:20.105Z,6.50
2018-11-29T18:10:50.214Z,6.20
2018-11-29T18:13:24.413Z,5.50
2018-11-29T18:15:52.366Z,5.40
2018-11-29T18:18:20.284Z,6.17
2018-11-29T18:20:48.283Z,5.93
2018-11-29T18:23:16.343Z,5.13
2018-11-29T18:25:44.397Z,6.63
2018-11-29T18:28:12.540Z,6.67
2018-11-29T18:30:40.581Z,6.17
2018-11-29T18:33:08.698Z,7.43
2018-11-29T18:35:36.569Z,5.83
2018-11-29T18:38:05.518Z,6.10
2018-11-29T18:40:33.978Z,6.40
2018-11-29T18:43:02.077Z,5.20
2018-11-29T18:45:30.102Z,8.03
2018-11-29T18:47:58.222Z,7.83
2018-11-29T18:50:26.797Z,6.90
2018-11-29T18:52:54.851Z,5.47
2018-11-29T18:55:24.852Z,5.93
2018-11-29T18:57:54.039Z,6.00
2018-11-29T19:00:24.214Z,7.17
2018-11-29T19:02:56.961Z,5.43
2018-11-29T19:05:20.451Z,5.77
2018-11-29T19:07:48.642Z,6.07
2018-11-29T19:10:17.751Z,6.07
2018-11-29T19:13:18.021Z,5.83
2018-11-29T19:15:45.973Z,5.93
2018-11-29T19:18:14.057Z,6.07
2018-11-29T19:20:42.059Z,5.50
2018-11-29T19:23:10.157Z,5.93
2018-11-29T19:25:38.066Z,5.83
2018-11-29T19:28:06.732Z,5.80
2018-11-29T19:30:35.148Z,6.20
2018-11-29T19:33:08.542Z,6.50
2018-11-29T19:35:36.498Z,5.73
2018-11-29T19:38:04.844Z,5.70
2018-11-29T19:40:32.845Z,5.93
2018-11-29T19:43:01.656Z,5.50
2018-11-29T19:45:29.662Z,5.60
2018-11-29T19:47:57.699Z,5.47
2018-11-29T19:50:25.835Z,7.53
2018-11-29T19:52:55.329Z,6.50
2018-11-29T19:55:27.997Z,6.17
2018-11-29T19:57:56.078Z,5.77
2018-11-29T20:00:24.041Z,6.27
2018-11-29T20:02:54.216Z,5.07
2018-11-29T20:05:22.395Z,5.80
2018-11-29T20:07:50.509Z,4.97
2018-11-29T20:10:18.985Z,5.10
2018-11-29T20:12:53.934Z,6.73
2018-11-29T20:15:22.035Z,5.87
2018-11-29T20:17:50.142Z,5.77
2018-11-29T20:20:18.120Z,5.60
2018-11-29T20:22:46.079Z,5.13
2018-11-29T20:25:17.791Z,5.63
2018-11-29T20:27:45.803Z,6.07
2018-11-29T20:30:15.828Z,5.20
2018-11-29T20:32:43.917Z,6.50
2018-11-29T20:35:12.519Z,6.50
2018-11-29T20:37:40.755Z,5.90
2018-11-29T20:40:19.027Z,5.70
2018-11-29T20:42:48.128Z,6.40
2018-11-29T20:45:25.447Z,6.03
2018-11-29T20:47:53.586Z,6.60
2018-11-29T20:50:23.174Z,7.23
2018-11-29T20:52:52.419Z,6.70
2018-11-29T20:55:29.375Z,6.23
2018-11-29T20:57:57.475Z,5.80
2018-11-29T21:00:25.426Z,6.17
2018-11-29T21:02:53.410Z,7.43
2018-11-29T21:05:24.761Z,6.17
2018-11-29T21:07:55.140Z,6.10
2018-11-29T21:10:23.881Z,6.63
2018-11-29T21:12:51.777Z,6.37
2018-11-29T21:15:19.731Z,5.47
2018-11-29T21:17:47.740Z,6.37
2018-11-29T21:20:16.820Z,6.13
2018-11-29T21:22:46.039Z,10.50
2018-11-29T21:25:17.844Z,6.53
2018-11-29T21:27:46.018Z,6.83
2018-11-29T21:30:14.956Z,6.37
2018-11-29T21:32:43.229Z,6.03
2018-11-29T21:35:13.263Z,6.07
2018-11-29T21:37:41.659Z,6.23
2018-11-29T21:40:14.359Z,6.10
2018-11-29T21:42:42.355Z,6.53
2018-11-29T21:45:10.448Z,6.37
2018-11-29T21:47:39.809Z,6.27
2018-11-29T21:50:08.682Z,7.50
2018-11-29T21:52:38.169Z,7.40
2018-11-29T21:55:07.468Z,7.27
2018-11-29T21:57:35.634Z,6.77
2018-11-29T22:00:07.594Z,7.93
2018-11-29T22:02:35.625Z,7.80
2018-11-29T22:05:04.059Z,6.67
2018-11-29T22:07:32.186Z,9.10
2018-11-29T22:10:00.131Z,8.70
2018-11-29T22:12:28.142Z,6.87
2018-11-29T22:14:56.111Z,7.80
2018-11-29T22:17:24.136Z,10.03
2018-11-29T22:19:52.222Z,8.23
2018-11-29T22:22:20.191Z,8.03
2018-11-29T22:24:48.691Z,8.87
2018-11-29T22:27:16.897Z,9.63
2018-11-29T22:29:45.004Z,9.73
2018-11-29T22:32:13.313Z,9.17
2018-11-29T22:34:41.328Z,8.80
2018-11-29T22:37:09.424Z,9.20
2018-11-29T22:39:37.723Z,9.23
2018-11-29T22:42:05.957Z,9.77
2018-11-29T22:44:34.047Z,9.90
2018-11-29T22:47:02.039Z,9.13
2018-11-29T22:49:30.012Z,10.37
2018-11-29T22:51:57.902Z,9.60
2018-11-29T22:54:25.854Z,8.97
2018-11-29T22:56:53.826Z,9.80
2018-11-29T22:59:22.005Z,7.80
2018-11-29T23:01:49.917Z,8.77
2018-11-29T23:04:17.912Z,8.47
2018-11-29T23:06:46.106Z,8.73
2018-11-29T23:09:14.189Z,10.00
2018-11-29T23:11:42.227Z,11.73
2018-11-29T23:14:10.328Z,9.13
2018-11-29T23:16:38.515Z,10.07
2018-11-29T23:19:06.485Z,10.53
2018-11-29T23:21:34.777Z,10.03
2018-11-29T23:24:02.942Z,10.63
2018-11-29T23:26:31.048Z,9.80
2018-11-29T23:28:59.083Z,10.40
2018-11-29T23:31:27.642Z,8.93
2018-11-29T23:33:55.564Z,8.77
2018-11-29T23:36:23.642Z,9.37
2018-11-29T23:38:51.572Z,9.07
2018-11-29T23:41:19.638Z,9.33
2018-11-29T23:43:47.865Z,9.90
2018-11-29T23:46:15.946Z,8.40
2018-11-29T23:48:44.241Z,9.40
2018-11-29T23:51:12.306Z,9.60
2018-11-29T23:53:40.717Z,10.57
2018-11-29T23:56:08.753Z,9.27
2018-11-29T23:58:36.766Z,9.47
